sensor_id;sensor_type;location;lat;lon;timestamp;P1;durP1;ratioP1;P2;durP2;ratioP2
61911;SDS011;49973;52.084;5.412;2023-07-31T00:00:08;4.17;;;1.90;;
61911;SDS011;49973;52.084;5.412;2023-07-31T00:02:37;4.03;;;1.80;;
61911;SDS011;49973;52.084;5.412;2023-07-31T00:05:07;3.20;;;1.80;;
61911;SDS011;49973;52.084;5.412;2023-07-31T00:07:36;5.97;;;2.40;;
61911;SDS011;49973;52.084;5.412;2023-07-31T00:10:06;5.90;;;1.93;;
61911;SDS011;49973;52.084;5.412;2023-07-31T00:12:35;4.87;;;2.20;;
61911;SDS011;49973;52.084;5.412;2023-07-31T00:15:06;6.97;;;2.67;;
61911;SDS011;49973;52.084;5.412;2023-07-31T00:17:35;4.73;;;2.67;;
61911;SDS011;49973;52.084;5.412;2023-07-31T00:20:04;5.57;;;2.40;;
61911;SDS011;49973;52.084;5.412;2023-07-31T00:22:34;15.60;;;2.70;;
61911;SDS011;49973;52.084;5.412;2023-07-31T00:25:04;5.87;;;2.87;;
61911;SDS011;49973;52.084;5.412;2023-07-31T00:27:33;15.73;;;3.47;;
61911;SDS011;49973;52.084;5.412;2023-07-31T00:30:02;13.37;;;3.53;;
61911;SDS011;49973;52.084;5.412;2023-07-31T00:32:34;10.07;;;3.20;;
61911;SDS011;49973;52.084;5.412;2023-07-31T00:35:03;9.87;;;3.53;;
61911;SDS011;49973;52.084;5.412;2023-07-31T00:37:32;12.77;;;3.47;;
61911;SDS011;49973;52.084;5.412;2023-07-31T00:40:01;18.30;;;4.73;;
61911;SDS011;49973;52.084;5.412;2023-07-31T00:42:31;26.17;;;5.23;;
61911;SDS011;49973;52.084;5.412;2023-07-31T00:44:59;24.27;;;4.73;;
61911;SDS011;49973;52.084;5.412;2023-07-31T00:47:30;30.37;;;5.47;;
61911;SDS011;49973;52.084;5.412;2023-07-31T00:50:00;26.47;;;5.10;;
61911;SDS011;49973;52.084;5.412;2023-07-31T00:52:28;30.53;;;5.13;;
61911;SDS011;49973;52.084;5.412;2023-07-31T00:54:57;36.50;;;5.70;;
61911;SDS011;49973;52.084;5.412;2023-07-31T00:57:30;25.17;;;5.67;;
61911;SDS011;49973;52.084;5.412;2023-07-31T01:00:01;33.40;;;6.63;;
61911;SDS011;49973;52.084;5.412;2023-07-31T01:02:30;37.17;;;5.90;;
61911;SDS011;49973;52.084;5.412;2023-07-31T01:05:01;31.87;;;6.17;;
61911;SDS011;49973;52.084;5.412;2023-07-31T01:07:33;29.17;;;5.83;;
61911;SDS011;49973;52.084;5.412;2023-07-31T01:10:08;32.90;;;6.90;;
61911;SDS011;49973;52.084;5.412;2023-07-31T01:12:46;35.57;;;6.27;;
61911;SDS011;49973;52.084;5.412;2023-07-31T01:15:17;37.97;;;5.00;;
61911;SDS011;49973;52.084;5.412;2023-07-31T01:17:46;32.93;;;5.30;;
61911;SDS011;49973;52.084;5.412;2023-07-31T01:20:17;25.63;;;6.43;;
61911;SDS011;49973;52.084;5.412;2023-07-31T01:23:06;28.93;;;5.70;;
61911;SDS011;49973;52.084;5.412;2023-07-31T01:25:54;34.37;;;7.53;;
61911;SDS011;49973;52.084;5.412;2023-07-31T01:28:32;32.63;;;6.37;;
61911;SDS011;49973;52.084;5.412;2023-07-31T01:31:06;36.87;;;6.23;;
61911;SDS011;49973;52.084;5.412;2023-07-31T01:33:38;21.20;;;5.97;;
61911;SDS011;49973;52.084;5.412;2023-07-31T01:36:08;23.07;;;5.63;;
61911;SDS011;49973;52.084;5.412;2023-07-31T01:38:37;22.83;;;5.33;;
61911;SDS011;49973;52.084;5.412;2023-07-31T01:41:07;26.50;;;5.33;;
61911;SDS011;49973;52.084;5.412;2023-07-31T01:43:37;24.67;;;5.67;;
61911;SDS011;49973;52.084;5.412;2023-07-31T01:46:06;23.07;;;5.20;;
61911;SDS011;49973;52.084;5.412;2023-07-31T01:48:34;23.80;;;5.40;;
61911;SDS011;49973;52.084;5.412;2023-07-31T01:51:03;20.17;;;5.03;;
61911;SDS011;49973;52.084;5.412;2023-07-31T01:53:32;28.43;;;5.83;;
61911;SDS011;49973;52.084;5.412;2023-07-31T01:56:01;27.33;;;5.20;;
61911;SDS011;49973;52.084;5.412;2023-07-31T01:58:31;23.87;;;4.90;;
61911;SDS011;49973;52.084;5.412;2023-07-31T02:01:00;31.63;;;6.17;;
61911;SDS011;49973;52.084;5.412;2023-07-31T02:03:29;24.10;;;4.83;;
61911;SDS011;49973;52.084;5.412;2023-07-31T02:05:58;17.97;;;4.63;;
61911;SDS011;49973;52.084;5.412;2023-07-31T02:08:26;15.97;;;3.83;;
61911;SDS011;49973;52.084;5.412;2023-07-31T02:10:55;12.77;;;4.00;;
61911;SDS011;49973;52.084;5.412;2023-07-31T02:13:24;12.30;;;3.73;;
61911;SDS011;49973;52.084;5.412;2023-07-31T02:15:54;24.83;;;4.63;;
61911;SDS011;49973;52.084;5.412;2023-07-31T02:18:23;11.30;;;4.07;;
61911;SDS011;49973;52.084;5.412;2023-07-31T02:20:52;17.03;;;3.93;;
61911;SDS011;49973;52.084;5.412;2023-07-31T02:23:21;16.40;;;3.63;;
61911;SDS011;49973;52.084;5.412;2023-07-31T02:25:50;15.77;;;4.03;;
61911;SDS011;49973;52.084;5.412;2023-07-31T02:28:18;9.20;;;3.77;;
61911;SDS011;49973;52.084;5.412;2023-07-31T02:30:47;17.67;;;3.83;;
61911;SDS011;49973;52.084;5.412;2023-07-31T02:33:18;20.47;;;4.43;;
61911;SDS011;49973;52.084;5.412;2023-07-31T02:35:46;20.20;;;4.47;;
61911;SDS011;49973;52.084;5.412;2023-07-31T02:38:15;13.00;;;3.10;;
61911;SDS011;49973;52.084;5.412;2023-07-31T02:40:44;16.83;;;4.33;;
61911;SDS011;49973;52.084;5.412;2023-07-31T02:43:13;13.93;;;4.10;;
61911;SDS011;49973;52.084;5.412;2023-07-31T02:45:42;18.77;;;4.40;;
61911;SDS011;49973;52.084;5.412;2023-07-31T02:48:11;18.63;;;3.63;;
61911;SDS011;49973;52.084;5.412;2023-07-31T02:50:41;21.57;;;4.03;;
61911;SDS011;49973;52.084;5.412;2023-07-31T02:53:10;14.53;;;3.80;;
61911;SDS011;49973;52.084;5.412;2023-07-31T02:55:39;14.17;;;4.60;;
61911;SDS011;49973;52.084;5.412;2023-07-31T02:58:08;20.07;;;5.10;;
61911;SDS011;49973;52.084;5.412;2023-07-31T03:00:41;13.40;;;4.87;;
61911;SDS011;49973;52.084;5.412;2023-07-31T03:03:10;22.97;;;5.50;;
61911;SDS011;49973;52.084;5.412;2023-07-31T03:05:39;28.60;;;5.60;;
61911;SDS011;49973;52.084;5.412;2023-07-31T03:08:09;24.20;;;4.83;;
61911;SDS011;49973;52.084;5.412;2023-07-31T03:10:38;19.97;;;5.20;;
61911;SDS011;49973;52.084;5.412;2023-07-31T03:13:06;22.33;;;6.07;;
61911;SDS011;49973;52.084;5.412;2023-07-31T03:15:35;21.17;;;6.03;;
61911;SDS011;49973;52.084;5.412;2023-07-31T03:18:04;27.43;;;6.10;;
61911;SDS011;49973;52.084;5.412;2023-07-31T03:20:33;34.00;;;5.87;;
61911;SDS011;49973;52.084;5.412;2023-07-31T03:23:01;22.60;;;6.40;;
61911;SDS011;49973;52.084;5.412;2023-07-31T03:25:31;26.73;;;5.73;;
61911;SDS011;49973;52.084;5.412;2023-07-31T03:28:00;22.73;;;6.53;;
61911;SDS011;49973;52.084;5.412;2023-07-31T03:30:30;29.73;;;6.00;;
61911;SDS011;49973;52.084;5.412;2023-07-31T03:32:58;23.53;;;6.07;;
61911;SDS011;49973;52.084;5.412;2023-07-31T03:35:27;13.03;;;5.40;;
61911;SDS011;49973;52.084;5.412;2023-07-31T03:37:56;16.07;;;5.67;;
61911;SDS011;49973;52.084;5.412;2023-07-31T03:40:24;21.47;;;6.03;;
61911;SDS011;49973;52.084;5.412;2023-07-31T03:42:55;25.23;;;5.50;;
61911;SDS011;49973;52.084;5.412;2023-07-31T03:45:23;20.93;;;6.23;;
61911;SDS011;49973;52.084;5.412;2023-07-31T03:47:52;23.97;;;5.77;;
61911;SDS011;49973;52.084;5.412;2023-07-31T03:50:23;17.20;;;5.23;;
61911;SDS011;49973;52.084;5.412;2023-07-31T03:52:53;26.73;;;6.53;;
61911;SDS011;49973;52.084;5.412;2023-07-31T03:55:21;31.23;;;6.33;;
61911;SDS011;49973;52.084;5.412;2023-07-31T03:57:50;19.80;;;5.57;;
61911;SDS011;49973;52.084;5.412;2023-07-31T04:00:23;27.33;;;6.17;;
61911;SDS011;49973;52.084;5.412;2023-07-31T04:02:51;18.03;;;6.00;;
61911;SDS011;49973;52.084;5.412;2023-07-31T04:05:20;11.97;;;4.90;;
61911;SDS011;49973;52.084;5.412;2023-07-31T04:07:49;22.73;;;6.90;;
61911;SDS011;49973;52.084;5.412;2023-07-31T04:10:18;25.40;;;5.70;;
61911;SDS011;49973;52.084;5.412;2023-07-31T04:12:46;13.20;;;5.57;;
61911;SDS011;49973;52.084;5.412;2023-07-31T04:15:15;22.47;;;5.70;;
61911;SDS011;49973;52.084;5.412;2023-07-31T04:17:45;27.27;;;6.03;;
61911;SDS011;49973;52.084;5.412;2023-07-31T04:20:14;22.57;;;6.00;;
61911;SDS011;49973;52.084;5.412;2023-07-31T04:22:43;17.70;;;6.10;;
61911;SDS011;49973;52.084;5.412;2023-07-31T04:25:11;16.20;;;5.37;;
61911;SDS011;49973;52.084;5.412;2023-07-31T04:27:40;31.40;;;5.77;;
61911;SDS011;49973;52.084;5.412;2023-07-31T04:30:09;19.53;;;5.30;;
61911;SDS011;49973;52.084;5.412;2023-07-31T04:32:38;10.67;;;4.63;;
61911;SDS011;49973;52.084;5.412;2023-07-31T04:35:08;16.33;;;5.37;;
61911;SDS011;49973;52.084;5.412;2023-07-31T04:37:37;16.27;;;5.93;;
61911;SDS011;49973;52.084;5.412;2023-07-31T04:40:06;22.20;;;6.00;;
61911;SDS011;49973;52.084;5.412;2023-07-31T04:42:35;15.10;;;4.90;;
61911;SDS011;49973;52.084;5.412;2023-07-31T04:45:04;16.60;;;5.53;;
61911;SDS011;49973;52.084;5.412;2023-07-31T04:47:33;24.10;;;5.93;;
61911;SDS011;49973;52.084;5.412;2023-07-31T04:50:02;15.43;;;4.93;;
61911;SDS011;49973;52.084;5.412;2023-07-31T04:52:33;16.10;;;5.40;;
61911;SDS011;49973;52.084;5.412;2023-07-31T04:55:01;25.63;;;6.40;;
61911;SDS011;49973;52.084;5.412;2023-07-31T04:57:30;13.23;;;5.30;;
61911;SDS011;49973;52.084;5.412;2023-07-31T04:59:59;16.53;;;4.77;;
61911;SDS011;49973;52.084;5.412;2023-07-31T05:02:28;17.93;;;4.37;;
61911;SDS011;49973;52.084;5.412;2023-07-31T05:04:57;12.53;;;5.30;;
61911;SDS011;49973;52.084;5.412;2023-07-31T05:07:25;25.10;;;5.60;;
61911;SDS011;49973;52.084;5.412;2023-07-31T05:09:55;19.67;;;6.07;;
61911;SDS011;49973;52.084;5.412;2023-07-31T05:12:24;21.03;;;5.63;;
61911;SDS011;49973;52.084;5.412;2023-07-31T05:14:53;25.07;;;5.40;;
61911;SDS011;49973;52.084;5.412;2023-07-31T05:17:22;17.07;;;4.50;;
61911;SDS011;49973;52.084;5.412;2023-07-31T05:19:51;18.30;;;5.33;;
61911;SDS011;49973;52.084;5.412;2023-07-31T05:22:19;19.03;;;5.03;;
61911;SDS011;49973;52.084;5.412;2023-07-31T05:24:48;17.33;;;5.57;;
61911;SDS011;49973;52.084;5.412;2023-07-31T05:27:18;20.47;;;5.77;;
61911;SDS011;49973;52.084;5.412;2023-07-31T05:29:47;19.23;;;4.73;;
61911;SDS011;49973;52.084;5.412;2023-07-31T05:32:15;14.87;;;4.57;;
61911;SDS011;49973;52.084;5.412;2023-07-31T05:34:44;12.93;;;3.43;;
61911;SDS011;49973;52.084;5.412;2023-07-31T05:37:13;16.00;;;4.57;;
61911;SDS011;49973;52.084;5.412;2023-07-31T05:39:42;18.90;;;4.10;;
61911;SDS011;49973;52.084;5.412;2023-07-31T05:42:11;8.37;;;3.27;;
61911;SDS011;49973;52.084;5.412;2023-07-31T05:44:41;8.53;;;3.50;;
61911;SDS011;49973;52.084;5.412;2023-07-31T05:47:10;13.67;;;3.93;;
61911;SDS011;49973;52.084;5.412;2023-07-31T05:49:39;9.20;;;3.27;;
61911;SDS011;49973;52.084;5.412;2023-07-31T05:52:07;11.83;;;3.93;;
61911;SDS011;49973;52.084;5.412;2023-07-31T05:54:36;11.77;;;4.10;;
61911;SDS011;49973;52.084;5.412;2023-07-31T05:57:05;8.00;;;3.63;;
61911;SDS011;49973;52.084;5.412;2023-07-31T05:59:34;9.33;;;4.43;;
61911;SDS011;49973;52.084;5.412;2023-07-31T06:02:04;9.87;;;4.07;;
61911;SDS011;49973;52.084;5.412;2023-07-31T06:04:34;13.57;;;4.10;;
61911;SDS011;49973;52.084;5.412;2023-07-31T06:07:03;13.97;;;4.63;;
61911;SDS011;49973;52.084;5.412;2023-07-31T06:09:32;11.03;;;4.67;;
61911;SDS011;49973;52.084;5.412;2023-07-31T06:12:00;9.17;;;4.10;;
61911;SDS011;49973;52.084;5.412;2023-07-31T06:14:29;13.97;;;4.37;;
61911;SDS011;49973;52.084;5.412;2023-07-31T06:16:58;11.47;;;4.33;;
61911;SDS011;49973;52.084;5.412;2023-07-31T06:19:28;13.60;;;4.13;;
61911;SDS011;49973;52.084;5.412;2023-07-31T06:21:57;11.50;;;4.37;;
61911;SDS011;49973;52.084;5.412;2023-07-31T06:24:26;16.53;;;4.13;;
61911;SDS011;49973;52.084;5.412;2023-07-31T06:26:56;10.67;;;3.93;;
61911;SDS011;49973;52.084;5.412;2023-07-31T06:29:26;19.43;;;4.43;;
61911;SDS011;49973;52.084;5.412;2023-07-31T06:31:55;11.63;;;4.00;;
61911;SDS011;49973;52.084;5.412;2023-07-31T06:34:25;5.93;;;3.23;;
61911;SDS011;49973;52.084;5.412;2023-07-31T06:36:56;8.90;;;3.57;;
61911;SDS011;49973;52.084;5.412;2023-07-31T06:39:25;9.97;;;3.87;;
61911;SDS011;49973;52.084;5.412;2023-07-31T06:41:53;10.13;;;3.70;;
61911;SDS011;49973;52.084;5.412;2023-07-31T06:44:22;9.27;;;3.37;;
61911;SDS011;49973;52.084;5.412;2023-07-31T06:46:51;13.00;;;3.00;;
61911;SDS011;49973;52.084;5.412;2023-07-31T06:49:20;7.20;;;3.77;;
61911;SDS011;49973;52.084;5.412;2023-07-31T06:51:48;7.13;;;3.37;;
61911;SDS011;49973;52.084;5.412;2023-07-31T06:54:18;12.50;;;3.80;;
61911;SDS011;49973;52.084;5.412;2023-07-31T06:56:47;6.00;;;3.20;;
61911;SDS011;49973;52.084;5.412;2023-07-31T06:59:16;9.30;;;3.43;;
61911;SDS011;49973;52.084;5.412;2023-07-31T07:01:45;11.87;;;3.37;;
61911;SDS011;49973;52.084;5.412;2023-07-31T07:04:14;11.00;;;3.43;;
61911;SDS011;49973;52.084;5.412;2023-07-31T07:06:42;10.23;;;3.50;;
61911;SDS011;49973;52.084;5.412;2023-07-31T07:09:11;5.37;;;3.07;;
61911;SDS011;49973;52.084;5.412;2023-07-31T07:11:41;7.47;;;3.53;;
61911;SDS011;49973;52.084;5.412;2023-07-31T07:14:10;10.07;;;3.70;;
61911;SDS011;49973;52.084;5.412;2023-07-31T07:16:38;8.40;;;4.23;;
61911;SDS011;49973;52.084;5.412;2023-07-31T07:19:08;10.93;;;3.90;;
61911;SDS011;49973;52.084;5.412;2023-07-31T07:21:37;8.57;;;3.90;;
61911;SDS011;49973;52.084;5.412;2023-07-31T07:24:06;4.50;;;3.30;;
61911;SDS011;49973;52.084;5.412;2023-07-31T07:26:34;5.70;;;3.50;;
61911;SDS011;49973;52.084;5.412;2023-07-31T07:29:05;12.93;;;4.67;;
61911;SDS011;49973;52.084;5.412;2023-07-31T07:31:34;7.70;;;3.73;;
61911;SDS011;49973;52.084;5.412;2023-07-31T07:34:04;12.20;;;4.13;;
61911;SDS011;49973;52.084;5.412;2023-07-31T07:36:32;9.93;;;4.77;;
61911;SDS011;49973;52.084;5.412;2023-07-31T07:39:01;10.43;;;4.40;;
61911;SDS011;49973;52.084;5.412;2023-07-31T07:41:30;11.80;;;4.40;;
61911;SDS011;49973;52.084;5.412;2023-07-31T07:43:58;7.50;;;4.23;;
61911;SDS011;49973;52.084;5.412;2023-07-31T07:46:28;4.97;;;3.77;;
61911;SDS011;49973;52.084;5.412;2023-07-31T07:48:57;5.30;;;3.83;;
61911;SDS011;49973;52.084;5.412;2023-07-31T07:51:26;5.83;;;3.33;;
61911;SDS011;49973;52.084;5.412;2023-07-31T07:53:57;8.03;;;4.27;;
61911;SDS011;49973;52.084;5.412;2023-07-31T07:56:26;6.27;;;3.50;;
61911;SDS011;49973;52.084;5.412;2023-07-31T07:58:55;4.90;;;3.70;;
61911;SDS011;49973;52.084;5.412;2023-07-31T08:01:23;7.60;;;4.27;;
61911;SDS011;49973;52.084;5.412;2023-07-31T08:03:54;5.00;;;3.53;;
61911;SDS011;49973;52.084;5.412;2023-07-31T08:06:22;7.57;;;2.70;;
61911;SDS011;49973;52.084;5.412;2023-07-31T08:08:51;6.03;;;2.90;;
61911;SDS011;49973;52.084;5.412;2023-07-31T08:11:20;6.97;;;3.37;;
61911;SDS011;49973;52.084;5.412;2023-07-31T08:13:50;7.07;;;3.20;;
61911;SDS011;49973;52.084;5.412;2023-07-31T08:16:19;5.77;;;3.57;;
61911;SDS011;49973;52.084;5.412;2023-07-31T08:18:47;5.10;;;3.23;;
61911;SDS011;49973;52.084;5.412;2023-07-31T08:21:18;6.17;;;3.03;;
61911;SDS011;49973;52.084;5.412;2023-07-31T08:23:47;7.37;;;3.10;;
61911;SDS011;49973;52.084;5.412;2023-07-31T08:26:16;6.03;;;3.00;;
61911;SDS011;49973;52.084;5.412;2023-07-31T08:28:45;2.83;;;2.30;;
61911;SDS011;49973;52.084;5.412;2023-07-31T08:31:14;3.83;;;2.57;;
61911;SDS011;49973;52.084;5.412;2023-07-31T08:33:43;5.27;;;3.23;;
61911;SDS011;49973;52.084;5.412;2023-07-31T08:36:12;4.47;;;2.67;;
61911;SDS011;49973;52.084;5.412;2023-07-31T08:38:42;3.07;;;2.40;;
61911;SDS011;49973;52.084;5.412;2023-07-31T08:41:11;3.33;;;2.20;;
61911;SDS011;49973;52.084;5.412;2023-07-31T08:43:40;3.83;;;1.77;;
61911;SDS011;49973;52.084;5.412;2023-07-31T08:46:10;3.53;;;2.43;;
61911;SDS011;49973;52.084;5.412;2023-07-31T08:48:40;3.27;;;2.37;;
61911;SDS011;49973;52.084;5.412;2023-07-31T08:51:11;4.10;;;2.37;;
61911;SDS011;49973;52.084;5.412;2023-07-31T08:53:39;6.00;;;2.57;;
61911;SDS011;49973;52.084;5.412;2023-07-31T08:56:10;5.10;;;3.17;;
61911;SDS011;49973;52.084;5.412;2023-07-31T08:58:43;4.00;;;3.00;;
61911;SDS011;49973;52.084;5.412;2023-07-31T09:01:13;4.70;;;3.10;;
61911;SDS011;49973;52.084;5.412;2023-07-31T09:03:43;6.30;;;2.93;;
61911;SDS011;49973;52.084;5.412;2023-07-31T09:06:13;4.67;;;3.50;;
61911;SDS011;49973;52.084;5.412;2023-07-31T09:08:46;3.03;;;2.57;;
61911;SDS011;49973;52.084;5.412;2023-07-31T09:11:15;4.77;;;2.83;;
61911;SDS011;49973;52.084;5.412;2023-07-31T09:13:45;8.33;;;3.00;;
61911;SDS011;49973;52.084;5.412;2023-07-31T09:16:14;3.93;;;2.80;;
61911;SDS011;49973;52.084;5.412;2023-07-31T09:18:53;3.60;;;2.80;;
61911;SDS011;49973;52.084;5.412;2023-07-31T09:21:24;4.83;;;2.50;;
61911;SDS011;49973;52.084;5.412;2023-07-31T09:23:56;4.87;;;2.60;;
61911;SDS011;49973;52.084;5.412;2023-07-31T09:26:29;3.67;;;2.47;;
61911;SDS011;49973;52.084;5.412;2023-07-31T09:28:59;6.60;;;2.90;;
61911;SDS011;49973;52.084;5.412;2023-07-31T09:31:32;5.10;;;2.77;;
61911;SDS011;49973;52.084;5.412;2023-07-31T09:34:01;4.27;;;2.83;;
61911;SDS011;49973;52.084;5.412;2023-07-31T09:36:30;4.67;;;2.73;;
61911;SDS011;49973;52.084;5.412;2023-07-31T09:39:03;3.17;;;2.40;;
61911;SDS011;49973;52.084;5.412;2023-07-31T09:41:33;3.30;;;2.70;;
61911;SDS011;49973;52.084;5.412;2023-07-31T09:44:05;5.83;;;3.03;;
61911;SDS011;49973;52.084;5.412;2023-07-31T09:46:34;5.80;;;3.20;;
61911;SDS011;49973;52.084;5.412;2023-07-31T09:49:05;3.70;;;2.43;;
61911;SDS011;49973;52.084;5.412;2023-07-31T09:51:36;6.87;;;3.63;;
61911;SDS011;49973;52.084;5.412;2023-07-31T09:54:11;3.93;;;2.47;;
61911;SDS011;49973;52.084;5.412;2023-07-31T09:56:41;3.33;;;2.53;;
61911;SDS011;49973;52.084;5.412;2023-07-31T09:59:12;3.63;;;2.57;;
61911;SDS011;49973;52.084;5.412;2023-07-31T10:01:43;7.87;;;2.80;;
61911;SDS011;49973;52.084;5.412;2023-07-31T10:04:13;8.23;;;2.77;;
61911;SDS011;49973;52.084;5.412;2023-07-31T10:06:44;3.97;;;2.70;;
61911;SDS011;49973;52.084;5.412;2023-07-31T10:09:18;4.17;;;2.77;;
61911;SDS011;49973;52.084;5.412;2023-07-31T10:11:51;7.57;;;3.13;;
61911;SDS011;49973;52.084;5.412;2023-07-31T10:14:24;5.30;;;2.90;;
61911;SDS011;49973;52.084;5.412;2023-07-31T10:16:53;4.83;;;2.90;;
61911;SDS011;49973;52.084;5.412;2023-07-31T10:19:24;11.77;;;3.77;;
61911;SDS011;49973;52.084;5.412;2023-07-31T10:21:54;9.70;;;4.63;;
61911;SDS011;49973;52.084;5.412;2023-07-31T10:24:26;6.63;;;4.10;;
61911;SDS011;49973;52.084;5.412;2023-07-31T10:26:57;7.77;;;4.00;;
61911;SDS011;49973;52.084;5.412;2023-07-31T10:29:29;5.33;;;3.40;;
61911;SDS011;49973;52.084;5.412;2023-07-31T10:31:58;6.60;;;3.20;;
61911;SDS011;49973;52.084;5.412;2023-07-31T10:34:27;5.27;;;3.70;;
61911;SDS011;49973;52.084;5.412;2023-07-31T10:40:04;7.03;;;4.20;;
61911;SDS011;49973;52.084;5.412;2023-07-31T10:42:34;8.07;;;4.20;;
61911;SDS011;49973;52.084;5.412;2023-07-31T10:45:05;10.60;;;4.27;;
61911;SDS011;49973;52.084;5.412;2023-07-31T10:47:37;9.47;;;4.00;;
61911;SDS011;49973;52.084;5.412;2023-07-31T10:50:14;8.40;;;4.00;;
61911;SDS011;49973;52.084;5.412;2023-07-31T10:52:47;5.83;;;3.50;;
61911;SDS011;49973;52.084;5.412;2023-07-31T10:55:31;6.07;;;3.63;;
61911;SDS011;49973;52.084;5.412;2023-07-31T10:58:07;6.03;;;3.43;;
61911;SDS011;49973;52.084;5.412;2023-07-31T11:00:38;12.37;;;3.57;;
61911;SDS011;49973;52.084;5.412;2023-07-31T11:03:08;7.50;;;3.27;;
61911;SDS011;49973;52.084;5.412;2023-07-31T11:05:43;5.03;;;3.37;;
61911;SDS011;49973;52.084;5.412;2023-07-31T11:08:14;6.90;;;3.30;;
61911;SDS011;49973;52.084;5.412;2023-07-31T11:10:47;7.00;;;3.00;;
61911;SDS011;49973;52.084;5.412;2023-07-31T11:13:16;3.40;;;2.50;;
61911;SDS011;49973;52.084;5.412;2023-07-31T11:15:45;2.77;;;2.13;;
61911;SDS011;49973;52.084;5.412;2023-07-31T11:18:14;3.17;;;2.40;;
61911;SDS011;49973;52.084;5.412;2023-07-31T11:20:43;5.13;;;2.43;;
61911;SDS011;49973;52.084;5.412;2023-07-31T11:23:12;3.30;;;2.40;;
61911;SDS011;49973;52.084;5.412;2023-07-31T11:25:43;2.83;;;2.10;;
61911;SDS011;49973;52.084;5.412;2023-07-31T11:28:15;3.40;;;2.43;;
61911;SDS011;49973;52.084;5.412;2023-07-31T11:30:45;6.20;;;2.50;;
61911;SDS011;49973;52.084;5.412;2023-07-31T11:33:14;7.10;;;2.93;;
61911;SDS011;49973;52.084;5.412;2023-07-31T11:35:44;6.10;;;2.97;;
61911;SDS011;49973;52.084;5.412;2023-07-31T11:38:20;3.13;;;2.47;;
61911;SDS011;49973;52.084;5.412;2023-07-31T11:40:52;4.60;;;2.80;;
61911;SDS011;49973;52.084;5.412;2023-07-31T11:43:22;5.37;;;2.90;;
61911;SDS011;49973;52.084;5.412;2023-07-31T11:45:52;5.37;;;3.93;;
61911;SDS011;49973;52.084;5.412;2023-07-31T11:48:23;4.87;;;3.30;;
61911;SDS011;49973;52.084;5.412;2023-07-31T11:50:54;5.73;;;3.07;;
61911;SDS011;49973;52.084;5.412;2023-07-31T11:53:26;5.13;;;2.93;;
61911;SDS011;49973;52.084;5.412;2023-07-31T11:56:01;5.80;;;3.40;;
61911;SDS011;49973;52.084;5.412;2023-07-31T11:58:32;5.37;;;3.23;;
61911;SDS011;49973;52.084;5.412;2023-07-31T12:01:02;7.10;;;3.67;;
61911;SDS011;49973;52.084;5.412;2023-07-31T12:03:32;4.53;;;3.10;;
61911;SDS011;49973;52.084;5.412;2023-07-31T12:06:01;4.23;;;3.17;;
61911;SDS011;49973;52.084;5.412;2023-07-31T12:08:30;4.80;;;3.30;;
61911;SDS011;49973;52.084;5.412;2023-07-31T12:11:03;4.83;;;3.00;;
61911;SDS011;49973;52.084;5.412;2023-07-31T12:13:33;4.33;;;2.90;;
61911;SDS011;49973;52.084;5.412;2023-07-31T12:16:03;5.43;;;2.87;;
61911;SDS011;49973;52.084;5.412;2023-07-31T12:18:33;3.23;;;2.67;;
61911;SDS011;49973;52.084;5.412;2023-07-31T12:21:04;8.90;;;2.83;;
61911;SDS011;49973;52.084;5.412;2023-07-31T12:23:34;6.57;;;3.33;;
61911;SDS011;49973;52.084;5.412;2023-07-31T12:26:06;2.97;;;2.57;;
61911;SDS011;49973;52.084;5.412;2023-07-31T12:28:36;4.90;;;2.40;;
61911;SDS011;49973;52.084;5.412;2023-07-31T12:31:06;2.33;;;2.13;;
61911;SDS011;49973;52.084;5.412;2023-07-31T12:33:37;5.33;;;2.70;;
61911;SDS011;49973;52.084;5.412;2023-07-31T12:36:08;3.67;;;2.60;;
61911;SDS011;49973;52.084;5.412;2023-07-31T12:38:38;3.53;;;2.83;;
61911;SDS011;49973;52.084;5.412;2023-07-31T12:41:08;3.43;;;2.73;;
61911;SDS011;49973;52.084;5.412;2023-07-31T12:43:38;3.70;;;2.90;;
61911;SDS011;49973;52.084;5.412;2023-07-31T12:46:08;4.70;;;3.20;;
61911;SDS011;49973;52.084;5.412;2023-07-31T12:48:37;4.10;;;3.10;;
61911;SDS011;49973;52.084;5.412;2023-07-31T12:51:07;5.67;;;3.30;;
61911;SDS011;49973;52.084;5.412;2023-07-31T12:53:36;4.40;;;3.70;;
61911;SDS011;49973;52.084;5.412;2023-07-31T12:56:04;6.60;;;3.43;;
61911;SDS011;49973;52.084;5.412;2023-07-31T12:58:35;6.93;;;3.80;;
61911;SDS011;49973;52.084;5.412;2023-07-31T13:01:03;3.97;;;3.23;;
61911;SDS011;49973;52.084;5.412;2023-07-31T13:03:33;5.40;;;3.67;;
61911;SDS011;49973;52.084;5.412;2023-07-31T13:06:02;3.87;;;3.47;;
61911;SDS011;49973;52.084;5.412;2023-07-31T13:08:32;6.00;;;3.47;;
61911;SDS011;49973;52.084;5.412;2023-07-31T13:11:01;6.80;;;3.60;;
61911;SDS011;49973;52.084;5.412;2023-07-31T13:13:29;7.57;;;3.03;;
61911;SDS011;49973;52.084;5.412;2023-07-31T13:16:00;5.67;;;3.77;;
61911;SDS011;49973;52.084;5.412;2023-07-31T13:18:29;4.60;;;3.50;;
61911;SDS011;49973;52.084;5.412;2023-07-31T13:20:58;4.07;;;3.27;;
61911;SDS011;49973;52.084;5.412;2023-07-31T13:23:26;4.77;;;3.60;;
61911;SDS011;49973;52.084;5.412;2023-07-31T13:25:55;4.73;;;3.07;;
61911;SDS011;49973;52.084;5.412;2023-07-31T13:28:24;6.03;;;3.43;;
61911;SDS011;49973;52.084;5.412;2023-07-31T13:30:53;3.73;;;2.93;;
61911;SDS011;49973;52.084;5.412;2023-07-31T13:33:23;6.43;;;3.60;;
61911;SDS011;49973;52.084;5.412;2023-07-31T13:36:03;3.23;;;2.67;;
61911;SDS011;49973;52.084;5.412;2023-07-31T13:38:32;3.77;;;2.50;;
61911;SDS011;49973;52.084;5.412;2023-07-31T13:41:01;3.10;;;2.27;;
61911;SDS011;49973;52.084;5.412;2023-07-31T13:43:30;3.83;;;2.53;;
61911;SDS011;49973;52.084;5.412;2023-07-31T13:45:59;3.80;;;2.90;;
61911;SDS011;49973;52.084;5.412;2023-07-31T13:48:35;4.20;;;3.20;;
61911;SDS011;49973;52.084;5.412;2023-07-31T13:51:04;5.93;;;2.70;;
61911;SDS011;49973;52.084;5.412;2023-07-31T13:53:33;3.53;;;2.87;;
61911;SDS011;49973;52.084;5.412;2023-07-31T13:56:02;5.23;;;2.87;;
61911;SDS011;49973;52.084;5.412;2023-07-31T13:58:31;5.30;;;3.27;;
61911;SDS011;49973;52.084;5.412;2023-07-31T14:01:00;9.10;;;4.40;;
61911;SDS011;49973;52.084;5.412;2023-07-31T14:03:29;7.53;;;4.50;;
61911;SDS011;49973;52.084;5.412;2023-07-31T14:05:59;7.67;;;4.70;;
61911;SDS011;49973;52.084;5.412;2023-07-31T14:08:28;8.40;;;4.83;;
61911;SDS011;49973;52.084;5.412;2023-07-31T14:10:58;8.90;;;5.57;;
61911;SDS011;49973;52.084;5.412;2023-07-31T14:13:26;8.57;;;5.40;;
61911;SDS011;49973;52.084;5.412;2023-07-31T14:15:55;13.77;;;5.43;;
61911;SDS011;49973;52.084;5.412;2023-07-31T14:18:24;13.60;;;6.30;;
61911;SDS011;49973;52.084;5.412;2023-07-31T14:20:53;12.40;;;6.90;;
61911;SDS011;49973;52.084;5.412;2023-07-31T14:23:24;11.47;;;7.23;;
61911;SDS011;49973;52.084;5.412;2023-07-31T14:25:53;11.37;;;6.07;;
61911;SDS011;49973;52.084;5.412;2023-07-31T14:28:21;10.97;;;6.13;;
61911;SDS011;49973;52.084;5.412;2023-07-31T14:30:50;8.47;;;6.37;;
61911;SDS011;49973;52.084;5.412;2023-07-31T14:33:19;12.33;;;5.83;;
61911;SDS011;49973;52.084;5.412;2023-07-31T14:35:48;11.47;;;6.03;;
61911;SDS011;49973;52.084;5.412;2023-07-31T14:38:16;9.93;;;6.17;;
61911;SDS011;49973;52.084;5.412;2023-07-31T14:40:46;9.80;;;5.73;;
61911;SDS011;49973;52.084;5.412;2023-07-31T14:43:16;13.77;;;6.63;;
61911;SDS011;49973;52.084;5.412;2023-07-31T14:45:45;12.80;;;7.33;;
61911;SDS011;49973;52.084;5.412;2023-07-31T14:48:14;10.93;;;6.23;;
61911;SDS011;49973;52.084;5.412;2023-07-31T14:50:43;9.77;;;5.77;;
61911;SDS011;49973;52.084;5.412;2023-07-31T14:53:11;12.57;;;6.40;;
61911;SDS011;49973;52.084;5.412;2023-07-31T14:55:41;7.63;;;4.67;;
61911;SDS011;49973;52.084;5.412;2023-07-31T14:58:11;8.43;;;4.60;;